Shoreham, NY (11786)

3:58 AM EST on November 26, 2014 (GMT -0500)
North Shore | Change Station
CLOSE
Current Station
Personal Weather Station
Location: Rocky Point, NY
Elevation: 187 ft
Nearby Weather Stations

Elev 187 ft 40.96 °N, 72.92 °W | Updated 13 seconds ago

Mostly Cloudy
Mostly Cloudy
49.3 °F
Feels Like 45 °F
N
9.8
Wind Variable Wind from NW
Gusts 13.3 mph

Today
High -- | Low -- °F
--% Chance of Precip.
Yesterday
High -- | Low -- °F
Precip. -- in
6:51 AM 4:25 PM
Waxing Crescent, 18% visible
Pressure 30.18 in
Visibility 10.0 miles
Clouds Overcast 11000 ft
Windchill 45 °F
Dew Point 35 °F
Humidity 58%
Rainfall 0.00 in
Snow Depth Not available.
UV 0 out of 12
Pollen .10 out of 12
Air Quality Not available.
Flu Activity Not available.
METAR KHWV 260756Z AUTO 33005KT 10SM OVC110 08/01 A3018 RMK AO2 SLP220 T00830006 TSNO

More Conditions Fewer Conditions

Pressure 30.18 in
Visibility 10.0 miles
Clouds Overcast 11000 ft
Windchill 45 °F
Dew Point 35 °F
Humidity 58%
Rainfall 0.00 in
Snow Depth Not available.
UV 0 out of 12
Pollen .10 out of 12
Air Quality Not available.
Flu Activity Not available.
METAR KHWV 260756Z AUTO 33005KT 10SM OVC110 08/01 A3018 RMK AO2 SLP220 T00830006 TSNO

More Conditions Fewer Conditions

10-Day Weather Forecast

Almanac

Astronomy

Nov. 26, 2014 Rise Set
Actual Time
Civil Twilight
Nautical Twilight
Astronomical Twilight
Moon
Length of Visible Light
Length of Day
Tomorrow will be .
, % of the Moon is Illuminated

Today's Extremes

State Highs State Lows

Community

WunderPhotos

Upload Photos

1,773,694 photos uploaded!

WunderBlogs® & News

Nearby

Air Quality

  Air Quality AQ Index Pollutant
Not available.

Snow Depth

Station Depth Elevation

Earthquake Activity

City Distance Mag. Time & Date
Minimum magnitude displayed is 2.5.

Coastal Water Temperatures

Place Temperature

Nearby Weather Stations